createdAt,value
2018-05-10T00:01:46.254Z,99.90
2018-05-10T00:04:14.695Z,99.90
2018-05-10T00:06:42.376Z,99.90
2018-05-10T00:09:10.062Z,99.90
2018-05-10T00:11:38.522Z,99.90
2018-05-10T00:14:06.258Z,99.90
2018-05-10T00:16:33.926Z,99.90
2018-05-10T00:19:01.616Z,99.90
2018-05-10T00:21:29.251Z,99.90
2018-05-10T00:23:56.915Z,99.90
2018-05-10T00:26:24.612Z,99.90
2018-05-10T00:28:53.016Z,99.90
2018-05-10T00:31:20.703Z,99.90
2018-05-10T00:33:48.392Z,99.90
2018-05-10T00:36:16.028Z,99.90
2018-05-10T00:38:43.690Z,99.90
2018-05-10T00:41:11.385Z,99.90
2018-05-10T00:43:39.795Z,99.90
2018-05-10T00:46:07.485Z,99.90
2018-05-10T00:48:35.146Z,99.90
2018-05-10T00:51:02.793Z,99.90
2018-05-10T00:53:30.473Z,99.90
2018-05-10T00:55:58.155Z,99.90
2018-05-10T00:58:26.578Z,99.90
2018-05-10T01:00:54.233Z,99.90
2018-05-10T01:03:21.944Z,99.90
2018-05-10T01:05:49.599Z,99.90
2018-05-10T01:08:17.283Z,99.90
2018-05-10T01:10:45.721Z,99.90
2018-05-10T01:13:13.407Z,99.90
2018-05-10T01:15:41.062Z,99.90
2018-05-10T01:18:08.767Z,99.90
2018-05-10T01:20:36.420Z,99.90
2018-05-10T01:23:04.083Z,99.90
2018-05-10T01:25:31.756Z,99.90
2018-05-10T01:28:00.157Z,99.90
2018-05-10T01:30:27.858Z,99.90
2018-05-10T01:32:56.314Z,99.90
2018-05-10T01:35:35.902Z,99.90
2018-05-10T01:38:03.623Z,99.90
2018-05-10T01:40:32.034Z,99.90
2018-05-10T01:42:59.763Z,99.90
2018-05-10T01:45:27.431Z,99.90
2018-05-10T01:47:55.100Z,99.90
2018-05-10T01:50:23.591Z,99.90
2018-05-10T01:52:51.259Z,99.90
2018-05-10T01:55:19.027Z,99.90
2018-05-10T01:57:46.687Z,99.90
2018-05-10T02:00:14.397Z,99.90
2018-05-10T02:02:42.031Z,99.90
2018-05-10T02:05:09.705Z,99.90
2018-05-10T02:07:37.381Z,99.90
2018-05-10T02:10:05.057Z,99.90
2018-05-10T02:12:32.738Z,99.90
2018-05-10T02:15:01.195Z,99.90
2018-05-10T02:17:28.842Z,99.90
2018-05-10T02:19:56.500Z,99.90
2018-05-10T02:22:24.172Z,99.90
2018-05-10T02:24:51.808Z,99.90
2018-05-10T02:27:19.508Z,99.90
2018-05-10T02:29:48.009Z,99.90
2018-05-10T02:32:15.648Z,99.90
2018-05-10T02:34:43.328Z,99.90
2018-05-10T02:37:11.021Z,99.90
2018-05-10T02:39:38.651Z,99.90
2018-05-10T02:42:06.327Z,99.90
2018-05-10T02:44:33.994Z,99.90
2018-05-10T02:47:01.642Z,99.90
2018-05-10T02:49:29.314Z,99.90
2018-05-10T02:51:57.270Z,99.90
2018-05-10T02:54:24.911Z,99.90
2018-05-10T02:56:52.611Z,99.90
2018-05-10T02:59:20.313Z,99.90
2018-05-10T03:01:48.700Z,99.90
2018-05-10T03:04:17.131Z,99.90
2018-05-10T03:06:44.795Z,99.90
2018-05-10T03:09:12.430Z,99.90
2018-05-10T03:11:40.173Z,99.90
2018-05-10T03:14:07.839Z,99.90
2018-05-10T03:16:35.486Z,99.90
2018-05-10T03:19:03.940Z,99.90
2018-05-10T03:21:31.607Z,99.90
2018-05-10T03:24:00.093Z,99.90
2018-05-10T03:26:28.556Z,99.90
2018-05-10T03:28:56.227Z,99.90
2018-05-10T03:31:24.633Z,99.90
2018-05-10T03:33:52.300Z,99.90
2018-05-10T03:36:20.035Z,99.90
2018-05-10T03:38:47.675Z,99.90
2018-05-10T03:41:15.385Z,99.90
2018-05-10T03:43:43.055Z,99.90
2018-05-10T03:46:10.694Z,99.90
2018-05-10T03:48:38.373Z,99.90
2018-05-10T03:51:06.074Z,99.90
2018-05-10T03:53:33.758Z,99.90
2018-05-10T03:56:02.177Z,99.90
2018-05-10T03:58:29.962Z,99.90
2018-05-10T04:00:57.547Z,99.90
2018-05-10T04:03:49.877Z,99.90
2018-05-10T04:06:29.393Z,99.90
2018-05-10T04:09:09.038Z,99.90
2018-05-10T04:11:36.702Z,99.90
2018-05-10T04:14:04.348Z,99.90
2018-05-10T04:16:32.014Z,99.90
2018-05-10T04:18:59.663Z,99.90
2018-05-10T04:21:27.304Z,99.90
2018-05-10T04:23:54.964Z,99.90
2018-05-10T04:26:22.659Z,99.90
2018-05-10T04:28:50.289Z,99.90
2018-05-10T04:31:17.959Z,99.90
2018-05-10T04:33:45.619Z,99.90
2018-05-10T04:36:13.309Z,99.90
2018-05-10T04:38:40.999Z,99.90
2018-05-10T04:41:09.402Z,99.90
2018-05-10T04:43:37.099Z,99.90
2018-05-10T04:46:04.809Z,99.90
2018-05-10T04:48:33.264Z,99.90
2018-05-10T04:51:00.907Z,99.90
2018-05-10T04:53:28.576Z,99.90
2018-05-10T04:55:56.328Z,99.90
2018-05-10T04:58:23.972Z,99.90
2018-05-10T05:00:51.670Z,99.90
2018-05-10T05:03:19.335Z,99.90
2018-05-10T05:05:47.737Z,99.90
2018-05-10T05:08:15.409Z,99.90
2018-05-10T05:10:43.082Z,99.90
2018-05-10T05:13:10.706Z,99.90
2018-05-10T05:15:39.302Z,99.90
2018-05-10T05:18:06.996Z,99.90
2018-05-10T05:20:34.621Z,99.90
2018-05-10T05:23:02.315Z,99.90
2018-05-10T05:25:29.999Z,99.90
2018-05-10T05:27:57.616Z,99.90
2018-05-10T05:30:26.121Z,99.90
2018-05-10T05:32:53.786Z,99.90
2018-05-10T05:35:21.466Z,99.90
2018-05-10T05:37:49.115Z,99.90
2018-05-10T05:40:16.813Z,99.90
2018-05-10T05:42:45.223Z,99.90
2018-05-10T05:45:12.910Z,99.90
2018-05-10T05:47:40.583Z,99.90
2018-05-10T05:50:08.214Z,99.90
2018-05-10T05:52:35.873Z,99.90
2018-05-10T05:55:03.646Z,99.90
2018-05-10T05:57:31.234Z,99.90
2018-05-10T05:59:58.904Z,99.90
2018-05-10T06:02:27.328Z,99.90
2018-05-10T06:04:54.954Z,99.90
2018-05-10T06:07:23.467Z,99.90
2018-05-10T06:09:51.124Z,99.90
2018-05-10T06:12:18.879Z,99.90
2018-05-10T06:14:46.541Z,99.90
2018-05-10T06:17:14.203Z,99.90
2018-05-10T06:19:41.831Z,99.90
2018-05-10T06:22:10.262Z,99.90
2018-05-10T06:24:37.917Z,99.90
2018-05-10T06:27:05.570Z,99.90
2018-05-10T06:29:33.236Z,99.90
2018-05-10T06:32:00.913Z,99.90
2018-05-10T06:34:28.559Z,99.90
2018-05-10T06:36:56.249Z,99.90
2018-05-10T06:39:23.926Z,99.90
2018-05-10T06:41:52.309Z,99.90
2018-05-10T06:44:20.752Z,99.90
2018-05-10T06:46:48.486Z,99.90
2018-05-10T06:49:16.852Z,99.90
2018-05-10T06:51:44.512Z,99.90
2018-05-10T06:56:46.202Z,99.90
2018-05-10T06:59:13.847Z,99.90
2018-05-10T07:01:41.512Z,99.90
2018-05-10T07:06:43.107Z,99.90
2018-05-10T07:09:10.776Z,99.90
2018-05-10T07:11:38.427Z,99.90
2018-05-10T07:14:06.052Z,99.90
2018-05-10T07:16:33.715Z,97.90
2018-05-10T07:19:01.364Z,99.90
2018-05-10T07:21:28.997Z,99.60
2018-05-10T07:23:57.409Z,96.10
2018-05-10T07:26:25.063Z,96.00
2018-05-10T07:28:52.694Z,96.60
2018-05-10T07:31:21.114Z,94.70
2018-05-10T07:33:48.776Z,94.70
2018-05-10T07:36:16.448Z,94.30
2018-05-10T07:38:44.104Z,92.40
2018-05-10T07:41:11.815Z,91.60
2018-05-10T07:43:40.218Z,92.50
2018-05-10T07:46:07.875Z,92.60
2018-05-10T07:48:35.558Z,92.10
2018-05-10T07:51:03.208Z,91.80
2018-05-10T07:53:30.860Z,93.30
2018-05-10T07:55:58.530Z,92.00
2018-05-10T07:58:26.160Z,93.00
2018-05-10T08:00:54.587Z,92.70
2018-05-10T08:03:22.295Z,92.70
2018-05-10T08:05:50.705Z,92.40
2018-05-10T08:08:18.361Z,92.40
2018-05-10T08:13:19.807Z,91.50
2018-05-10T08:15:47.492Z,90.90
2018-05-10T08:18:15.123Z,90.90
2018-05-10T08:20:43.548Z,93.00
2018-05-10T08:23:11.236Z,93.00
2018-05-10T08:25:38.882Z,92.30
2018-05-10T08:28:06.556Z,92.20
2018-05-10T08:30:34.228Z,91.90
2018-05-10T08:33:02.616Z,93.70
2018-05-10T08:35:31.040Z,93.30
2018-05-10T08:37:58.716Z,93.30
2018-05-10T08:40:26.366Z,95.30
2018-05-10T08:42:54.027Z,95.50
2018-05-10T08:45:21.682Z,96.60
2018-05-10T08:47:49.320Z,97.90
2018-05-10T08:50:16.966Z,99.90
2018-05-10T08:52:44.628Z,99.50
2018-05-10T08:55:12.318Z,98.90
2018-05-10T08:57:40.136Z,96.50
2018-05-10T09:00:07.842Z,95.90
2018-05-10T09:02:35.458Z,95.70
2018-05-10T09:05:03.903Z,94.80
2018-05-10T09:07:31.610Z,94.80
2018-05-10T09:09:59.980Z,93.60
2018-05-10T09:12:27.641Z,93.60
2018-05-10T09:14:55.316Z,93.60
2018-05-10T09:17:22.935Z,92.80
2018-05-10T09:19:50.600Z,91.60
2018-05-10T09:22:18.252Z,92.80
2018-05-10T09:24:45.890Z,91.00
2018-05-10T09:27:13.536Z,91.50
2018-05-10T09:29:41.187Z,90.60
2018-05-10T09:32:08.826Z,92.00
2018-05-10T09:34:36.495Z,91.90
2018-05-10T09:37:04.162Z,90.30
2018-05-10T09:39:31.804Z,89.60
2018-05-10T09:41:59.492Z,89.10
2018-05-10T09:44:27.150Z,90.10
2018-05-10T09:46:54.805Z,89.90
2018-05-10T09:49:22.496Z,87.20
2018-05-10T09:51:50.146Z,84.90
2018-05-10T09:54:17.808Z,83.50
2018-05-10T09:56:45.481Z,81.50
2018-05-10T09:59:13.147Z,78.40
2018-05-10T10:01:40.798Z,78.10
2018-05-10T10:04:08.472Z,76.70
2018-05-10T10:06:36.122Z,76.90
2018-05-10T10:09:03.891Z,78.30
2018-05-10T10:11:31.691Z,76.90
2018-05-10T10:13:59.354Z,77.20
2018-05-10T10:16:26.979Z,76.80
2018-05-10T10:18:54.663Z,76.30
2018-05-10T10:21:23.097Z,77.90
2018-05-10T10:23:50.850Z,77.80
2018-05-10T10:26:18.544Z,79.60
2018-05-10T10:28:46.219Z,77.60
2018-05-10T10:31:14.611Z,79.10
2018-05-10T10:33:43.059Z,81.30
2018-05-10T10:36:10.699Z,81.30
2018-05-10T10:38:38.398Z,81.80
2018-05-10T10:41:06.840Z,82.10
2018-05-10T10:43:34.533Z,82.20
2018-05-10T10:46:02.951Z,79.70
2018-05-10T10:48:30.674Z,79.70
2018-05-10T10:50:58.295Z,80.10
2018-05-10T10:53:25.933Z,77.10
2018-05-10T10:55:53.583Z,74.70
2018-05-10T10:58:21.246Z,76.70
2018-05-10T11:00:48.884Z,73.50
2018-05-10T11:03:16.555Z,75.80
2018-05-10T11:05:44.226Z,78.90
2018-05-10T11:08:11.863Z,80.00
2018-05-10T11:10:40.280Z,80.00
2018-05-10T11:13:07.959Z,80.00
2018-05-10T11:15:35.606Z,80.60
2018-05-10T11:18:03.294Z,81.80
2018-05-10T11:20:30.958Z,79.60
2018-05-10T11:22:58.594Z,80.70
2018-05-10T11:25:26.258Z,82.50
2018-05-10T11:27:53.927Z,84.00
2018-05-10T11:30:21.584Z,85.90
2018-05-10T11:32:49.325Z,80.70
2018-05-10T11:35:16.934Z,82.80
2018-05-10T11:37:45.327Z,80.30
2018-05-10T11:40:13.055Z,80.20
2018-05-10T11:42:40.751Z,81.10
2018-05-10T11:45:08.396Z,84.80
2018-05-10T11:47:36.840Z,83.70
2018-05-10T11:50:04.545Z,83.30
2018-05-10T11:52:32.191Z,84.20
2018-05-10T11:55:00.689Z,85.40
2018-05-10T11:57:28.327Z,85.40
2018-05-10T11:59:55.984Z,81.60
2018-05-10T12:02:23.650Z,79.20
2018-05-10T12:04:51.329Z,80.30
2018-05-10T12:07:18.964Z,79.70
2018-05-10T12:09:47.411Z,79.80
2018-05-10T12:12:15.087Z,79.70
2018-05-10T12:14:42.732Z,80.00
2018-05-10T12:17:10.396Z,80.80
2018-05-10T12:19:38.060Z,83.90
2018-05-10T12:22:05.766Z,85.70
2018-05-10T12:24:33.435Z,87.10
2018-05-10T12:27:01.100Z,85.50
2018-05-10T12:29:28.790Z,85.60
2018-05-10T12:31:56.445Z,87.30
2018-05-10T12:34:24.097Z,87.50
2018-05-10T12:36:51.742Z,88.90
2018-05-10T12:39:19.385Z,87.40
2018-05-10T12:41:47.041Z,84.90
2018-05-10T12:44:14.701Z,86.30
2018-05-10T12:46:42.363Z,85.80
2018-05-10T12:49:10.798Z,83.50
2018-05-10T12:51:38.434Z,83.50
2018-05-10T12:54:06.092Z,85.50
2018-05-10T12:56:33.805Z,84.70
2018-05-10T12:59:02.186Z,84.30
2018-05-10T13:01:30.611Z,82.50
2018-05-10T13:03:58.262Z,82.40
2018-05-10T13:06:25.897Z,82.20
2018-05-10T13:08:54.320Z,83.20
2018-05-10T13:11:21.981Z,83.20
2018-05-10T13:13:49.621Z,82.70
2018-05-10T13:16:17.295Z,83.30
2018-05-10T13:18:44.969Z,83.10
2018-05-10T13:21:12.599Z,84.10
2018-05-10T13:23:40.296Z,83.70
2018-05-10T13:26:07.967Z,82.80
2018-05-10T13:28:35.615Z,80.20
2018-05-10T13:31:03.291Z,79.20
2018-05-10T13:33:30.967Z,80.30
2018-05-10T13:35:59.358Z,81.90
2018-05-10T13:38:27.092Z,81.70
2018-05-10T13:40:54.767Z,78.40
2018-05-10T13:43:23.166Z,80.20
2018-05-10T13:45:50.835Z,80.20
2018-05-10T13:48:18.522Z,79.50
2018-05-10T13:50:46.158Z,79.90
2018-05-10T13:53:13.815Z,79.40
2018-05-10T13:55:41.480Z,78.90
2018-05-10T13:58:09.160Z,79.00
2018-05-10T14:00:36.818Z,79.90
2018-05-10T14:03:04.476Z,78.90
2018-05-10T14:05:32.111Z,79.80
2018-05-10T14:07:59.814Z,75.60
2018-05-10T14:10:27.498Z,76.00
2018-05-10T14:12:55.154Z,76.20
2018-05-10T14:15:22.824Z,77.20
2018-05-10T14:17:50.527Z,77.30
2018-05-10T14:20:18.155Z,78.20
2018-05-10T14:22:46.639Z,80.10
2018-05-10T14:25:14.310Z,80.10
2018-05-10T14:27:41.954Z,81.40
2018-05-10T14:30:09.717Z,82.50
2018-05-10T14:32:37.343Z,82.70
2018-05-10T14:35:04.982Z,85.10
2018-05-10T14:37:32.650Z,84.60
2018-05-10T14:40:00.511Z,84.90
2018-05-10T14:42:28.278Z,84.80
2018-05-10T14:44:55.996Z,85.70
2018-05-10T14:47:23.651Z,85.80
2018-05-10T14:49:51.300Z,86.40
2018-05-10T14:52:19.732Z,84.00
2018-05-10T14:54:47.387Z,84.10
2018-05-10T14:57:15.130Z,84.90
2018-05-10T14:59:42.928Z,84.50
2018-05-10T15:02:10.653Z,81.60
2018-05-10T15:04:38.275Z,80.50
2018-05-10T15:07:06.699Z,78.90
2018-05-10T15:09:34.369Z,78.90
2018-05-10T15:12:02.824Z,79.40
2018-05-10T15:14:30.483Z,80.10
2018-05-10T15:16:58.139Z,79.60
2018-05-10T15:19:25.815Z,82.10
2018-05-10T15:21:53.519Z,81.00
2018-05-10T15:24:21.218Z,81.50
2018-05-10T15:26:48.854Z,83.00
2018-05-10T15:29:16.531Z,83.10
2018-05-10T15:31:44.227Z,83.40
2018-05-10T15:34:11.881Z,84.00
2018-05-10T15:36:39.542Z,84.30
2018-05-10T15:39:07.353Z,84.40
2018-05-10T15:41:34.979Z,83.70
2018-05-10T15:44:02.652Z,84.00
2018-05-10T15:46:30.331Z,83.00
2018-05-10T15:48:57.969Z,82.70
2018-05-10T15:51:25.632Z,82.50
2018-05-10T15:53:53.346Z,83.40
2018-05-10T15:56:21.003Z,83.90
2018-05-10T15:58:48.679Z,84.30
2018-05-10T16:01:16.369Z,84.20
2018-05-10T16:03:44.022Z,83.80
2018-05-10T16:06:11.702Z,84.20
2018-05-10T16:08:39.369Z,84.80
2018-05-10T16:11:07.003Z,85.30
2018-05-10T16:13:34.663Z,85.90
2018-05-10T16:16:02.360Z,86.00
2018-05-10T16:18:30.779Z,84.60
2018-05-10T16:20:58.584Z,84.60
2018-05-10T16:23:26.303Z,84.00
2018-05-10T16:25:54.204Z,84.80
2018-05-10T16:28:22.009Z,85.30
2018-05-10T16:30:49.923Z,84.90
2018-05-10T16:33:17.716Z,85.20
2018-05-10T16:35:46.463Z,86.70
2018-05-10T16:38:14.429Z,86.70
2018-05-10T16:40:42.310Z,86.60
2018-05-10T16:43:10.308Z,87.50
2018-05-10T16:45:38.995Z,89.00
2018-05-10T16:48:07.439Z,90.00
2018-05-10T16:50:36.139Z,90.00
2018-05-10T16:53:03.915Z,90.00
2018-05-10T16:55:31.671Z,90.70
2018-05-10T16:57:59.436Z,91.30
2018-05-10T17:00:27.243Z,91.60
2018-05-10T17:02:55.013Z,91.90
2018-05-10T17:05:22.925Z,92.60
2018-05-10T17:07:50.873Z,93.10
2018-05-10T17:10:18.787Z,93.20
2018-05-10T17:12:46.568Z,93.60
2018-05-10T17:15:14.427Z,93.90
2018-05-10T17:17:42.203Z,93.60
2018-05-10T17:20:10.059Z,94.00
2018-05-10T17:22:37.982Z,94.10
2018-05-10T17:25:05.676Z,94.50
2018-05-10T17:27:33.380Z,94.80
2018-05-10T17:30:01.074Z,95.20
2018-05-10T17:32:30.263Z,96.00
2018-05-10T17:34:58.922Z,96.30
2018-05-10T17:37:26.825Z,96.30
2018-05-10T17:39:54.678Z,96.70
2018-05-10T17:42:23.424Z,97.50
2018-05-10T17:44:51.301Z,97.40
2018-05-10T17:47:19.190Z,97.90
2018-05-10T17:49:47.047Z,98.90
2018-05-10T17:52:14.784Z,99.40
2018-05-10T17:54:42.757Z,99.90
2018-05-10T17:57:10.493Z,99.90
2018-05-10T17:59:38.506Z,99.90
2018-05-10T18:02:07.217Z,99.90
2018-05-10T18:04:35.800Z,99.90
2018-05-10T18:07:03.771Z,99.90
2018-05-10T18:09:32.193Z,99.90
2018-05-10T18:12:00.044Z,99.90
2018-05-10T18:14:27.834Z,99.90
2018-05-10T18:16:55.575Z,99.90
2018-05-10T18:19:23.360Z,99.90
2018-05-10T18:21:52.043Z,99.90
2018-05-10T18:24:19.879Z,99.90
2018-05-10T18:26:47.744Z,99.90
2018-05-10T18:29:15.468Z,99.90
2018-05-10T18:31:43.155Z,99.90
2018-05-10T18:34:10.928Z,99.90
2018-05-10T18:36:38.658Z,99.90
2018-05-10T18:39:07.097Z,99.90
2018-05-10T18:41:34.821Z,99.90
2018-05-10T18:44:02.510Z,99.90
2018-05-10T18:46:30.253Z,99.90
2018-05-10T18:48:57.985Z,99.90
2018-05-10T18:51:26.447Z,99.90
2018-05-10T18:53:54.850Z,99.90
2018-05-10T18:56:22.584Z,99.90
2018-05-10T18:58:50.351Z,99.90
2018-05-10T19:01:18.889Z,99.90
2018-05-10T19:03:46.642Z,99.90
2018-05-10T19:06:14.490Z,99.90
2018-05-10T19:08:42.232Z,99.90
2018-05-10T19:11:10.811Z,99.90
2018-05-10T19:13:39.355Z,99.90
2018-05-10T19:16:07.095Z,99.90
2018-05-10T19:18:34.843Z,99.90
2018-05-10T19:21:03.432Z,99.90
2018-05-10T19:23:31.121Z,99.90
2018-05-10T19:25:58.939Z,99.90
2018-05-10T19:28:26.799Z,99.90
2018-05-10T19:30:54.522Z,99.90
2018-05-10T19:33:22.420Z,99.90
2018-05-10T19:35:50.926Z,99.90
2018-05-10T19:38:19.448Z,99.90
2018-05-10T19:40:47.335Z,99.90
2018-05-10T19:43:15.803Z,99.90
2018-05-10T19:45:43.545Z,99.90
2018-05-10T19:48:11.344Z,99.90
2018-05-10T19:50:39.262Z,99.90
2018-05-10T19:53:07.138Z,99.90
2018-05-10T19:55:34.915Z,99.90
2018-05-10T19:58:03.552Z,99.90
2018-05-10T20:00:31.334Z,99.90
2018-05-10T20:02:59.110Z,99.90
2018-05-10T20:05:26.947Z,99.90
2018-05-10T20:07:54.702Z,99.90
2018-05-10T20:10:22.591Z,99.90
2018-05-10T20:12:50.584Z,99.90
2018-05-10T20:15:18.297Z,99.90
2018-05-10T20:17:45.944Z,99.90
2018-05-10T20:20:13.607Z,99.90
2018-05-10T20:22:41.345Z,99.90
2018-05-10T20:25:09.818Z,99.90
2018-05-10T20:27:38.263Z,99.90
2018-05-10T20:30:06.003Z,99.90
2018-05-10T20:32:33.697Z,99.90
2018-05-10T20:35:02.186Z,99.90
2018-05-10T20:37:29.846Z,99.90
2018-05-10T20:39:58.520Z,99.90
2018-05-10T20:42:26.800Z,99.90
2018-05-10T20:44:55.011Z,99.90
2018-05-10T20:47:25.688Z,99.90
2018-05-10T20:49:54.569Z,99.90
2018-05-10T20:52:22.678Z,99.90
2018-05-10T20:54:51.850Z,99.90
2018-05-10T20:57:19.889Z,99.90
2018-05-10T20:59:48.435Z,99.90
2018-05-10T21:02:17.077Z,99.90
2018-05-10T21:04:45.101Z,99.90
2018-05-10T21:07:13.062Z,99.90
2018-05-10T21:09:40.894Z,99.90
2018-05-10T21:12:09.770Z,99.90
2018-05-10T21:14:38.998Z,99.90
2018-05-10T21:17:07.678Z,99.90
2018-05-10T21:19:36.385Z,99.90
2018-05-10T21:22:04.398Z,99.90
2018-05-10T21:24:33.535Z,99.90
2018-05-10T21:27:01.961Z,99.90
2018-05-10T21:29:29.693Z,99.90
2018-05-10T21:31:57.571Z,99.90
2018-05-10T21:34:27.775Z,99.90
2018-05-10T21:36:55.907Z,99.90
2018-05-10T21:39:24.563Z,99.90
2018-05-10T21:41:53.952Z,99.90
2018-05-10T21:44:22.234Z,99.90
2018-05-10T21:46:50.917Z,99.90
2018-05-10T21:49:32.603Z,99.90
2018-05-10T21:52:00.893Z,99.90
2018-05-10T21:54:28.736Z,99.90
2018-05-10T21:56:57.847Z,99.90
2018-05-10T21:59:26.778Z,99.90
2018-05-10T22:01:56.598Z,99.90
2018-05-10T22:04:24.278Z,99.90
2018-05-10T22:06:51.975Z,99.90
2018-05-10T22:09:19.674Z,99.90
2018-05-10T22:11:48.094Z,99.90
2018-05-10T22:14:15.764Z,99.90
2018-05-10T22:16:43.454Z,99.90
2018-05-10T22:19:11.108Z,99.90
2018-05-10T22:21:38.845Z,99.90
2018-05-10T22:24:06.537Z,99.90
2018-05-10T22:26:34.224Z,99.90
2018-05-10T22:29:01.942Z,99.90
2018-05-10T22:31:29.632Z,99.90
2018-05-10T22:33:58.046Z,99.90
2018-05-10T22:36:25.729Z,99.90
2018-05-10T22:38:53.411Z,99.90
2018-05-10T22:41:21.069Z,99.90
2018-05-10T22:43:48.812Z,99.90
2018-05-10T22:46:16.537Z,99.90
2018-05-10T22:48:44.203Z,99.90
2018-05-10T22:51:11.878Z,99.90
2018-05-10T22:53:39.622Z,99.90
2018-05-10T22:56:07.250Z,99.90
2018-05-10T22:58:35.691Z,99.90
2018-05-10T23:01:03.347Z,99.90
2018-05-10T23:03:30.996Z,99.90
2018-05-10T23:05:58.707Z,99.90
2018-05-10T23:08:26.378Z,99.90
2018-05-10T23:10:54.063Z,99.90
2018-05-10T23:13:21.772Z,99.90
2018-05-10T23:15:49.454Z,99.90
2018-05-10T23:18:17.880Z,99.90
2018-05-10T23:20:45.606Z,99.90
2018-05-10T23:23:14.052Z,99.90
2018-05-10T23:25:41.731Z,99.90
2018-05-10T23:28:10.178Z,99.90
2018-05-10T23:30:37.872Z,99.90
2018-05-10T23:33:05.554Z,99.90
2018-05-10T23:35:33.267Z,99.90
2018-05-10T23:38:00.964Z,99.90
2018-05-10T23:40:29.415Z,99.90
2018-05-10T23:42:57.143Z,99.90
2018-05-10T23:45:24.829Z,99.90
2018-05-10T23:47:52.523Z,99.90
2018-05-10T23:50:20.979Z,99.90
2018-05-10T23:52:48.660Z,99.90
2018-05-10T23:55:17.147Z,99.90
2018-05-10T23:57:45.609Z,99.90
